sensor_id;sensor_type;location;lat;lon;timestamp;P1;durP1;ratioP1;P2;durP2;ratioP2
71236;SDS011;58984;51.960;5.582;2023-04-03T00:01:27;6.72;;;2.53;;
71236;SDS011;58984;51.960;5.582;2023-04-03T00:03:53;3.75;;;2.22;;
71236;SDS011;58984;51.960;5.582;2023-04-03T00:06:20;2.45;;;1.75;;
71236;SDS011;58984;51.960;5.582;2023-04-03T00:08:46;5.57;;;2.33;;
71236;SDS011;58984;51.960;5.582;2023-04-03T00:11:11;4.20;;;2.22;;
71236;SDS011;58984;51.960;5.582;2023-04-03T00:13:37;3.03;;;2.00;;
71236;SDS011;58984;51.960;5.582;2023-04-03T00:16:04;4.95;;;2.00;;
71236;SDS011;58984;51.960;5.582;2023-04-03T00:18:30;3.42;;;1.88;;
71236;SDS011;58984;51.960;5.582;2023-04-03T00:20:56;2.47;;;1.90;;
71236;SDS011;58984;51.960;5.582;2023-04-03T00:23:22;2.92;;;2.03;;
71236;SDS011;58984;51.960;5.582;2023-04-03T00:25:48;3.47;;;1.90;;
71236;SDS011;58984;51.960;5.582;2023-04-03T00:28:15;4.55;;;2.08;;
71236;SDS011;58984;51.960;5.582;2023-04-03T00:30:40;3.35;;;2.00;;
71236;SDS011;58984;51.960;5.582;2023-04-03T00:33:06;2.95;;;1.92;;
71236;SDS011;58984;51.960;5.582;2023-04-03T00:35:33;3.28;;;2.15;;
71236;SDS011;58984;51.960;5.582;2023-04-03T00:38:00;3.70;;;1.95;;
71236;SDS011;58984;51.960;5.582;2023-04-03T00:40:26;2.92;;;1.80;;
71236;SDS011;58984;51.960;5.582;2023-04-03T00:42:54;4.05;;;2.20;;
71236;SDS011;58984;51.960;5.582;2023-04-03T00:45:24;3.08;;;2.10;;
71236;SDS011;58984;51.960;5.582;2023-04-03T00:47:52;1.80;;;1.70;;
71236;SDS011;58984;51.960;5.582;2023-04-03T00:50:18;2.33;;;2.10;;
71236;SDS011;58984;51.960;5.582;2023-04-03T00:52:44;4.45;;;2.10;;
71236;SDS011;58984;51.960;5.582;2023-04-03T00:55:13;5.38;;;2.38;;
71236;SDS011;58984;51.960;5.582;2023-04-03T00:57:39;2.70;;;1.92;;
71236;SDS011;58984;51.960;5.582;2023-04-03T01:00:08;4.22;;;2.00;;
71236;SDS011;58984;51.960;5.582;2023-04-03T01:02:36;2.92;;;1.95;;
71236;SDS011;58984;51.960;5.582;2023-04-03T01:05:02;5.38;;;2.17;;
71236;SDS011;58984;51.960;5.582;2023-04-03T01:07:29;4.18;;;2.20;;
71236;SDS011;58984;51.960;5.582;2023-04-03T01:09:56;3.10;;;1.83;;
71236;SDS011;58984;51.960;5.582;2023-04-03T01:12:32;3.58;;;2.00;;
71236;SDS011;58984;51.960;5.582;2023-04-03T01:15:00;2.72;;;1.90;;
71236;SDS011;58984;51.960;5.582;2023-04-03T01:25:35;3.53;;;2.00;;
71236;SDS011;58984;51.960;5.582;2023-04-03T01:28:04;3.10;;;2.38;;
71236;SDS011;58984;51.960;5.582;2023-04-03T01:30:32;2.45;;;1.90;;
71236;SDS011;58984;51.960;5.582;2023-04-03T01:33:00;3.20;;;1.90;;
71236;SDS011;58984;51.960;5.582;2023-04-03T01:35:26;3.38;;;1.85;;
71236;SDS011;58984;51.960;5.582;2023-04-03T01:37:51;3.30;;;2.10;;
71236;SDS011;58984;51.960;5.582;2023-04-03T01:40:17;3.72;;;2.08;;
71236;SDS011;58984;51.960;5.582;2023-04-03T01:42:43;2.70;;;2.00;;
71236;SDS011;58984;51.960;5.582;2023-04-03T01:45:08;3.45;;;1.88;;
71236;SDS011;58984;51.960;5.582;2023-04-03T01:47:34;3.55;;;2.08;;
71236;SDS011;58984;51.960;5.582;2023-04-03T01:50:00;2.63;;;1.95;;
71236;SDS011;58984;51.960;5.582;2023-04-03T01:52:26;2.83;;;2.00;;
71236;SDS011;58984;51.960;5.582;2023-04-03T01:54:51;3.63;;;2.22;;
71236;SDS011;58984;51.960;5.582;2023-04-03T01:57:17;3.13;;;2.00;;
71236;SDS011;58984;51.960;5.582;2023-04-03T01:59:43;4.40;;;2.05;;
71236;SDS011;58984;51.960;5.582;2023-04-03T02:02:08;3.03;;;2.08;;
71236;SDS011;58984;51.960;5.582;2023-04-03T02:04:34;3.50;;;2.15;;
71236;SDS011;58984;51.960;5.582;2023-04-03T02:06:59;7.28;;;1.80;;
71236;SDS011;58984;51.960;5.582;2023-04-03T02:09:25;3.92;;;2.30;;
71236;SDS011;58984;51.960;5.582;2023-04-03T02:11:51;3.72;;;2.25;;
71236;SDS011;58984;51.960;5.582;2023-04-03T02:14:17;4.80;;;1.98;;
71236;SDS011;58984;51.960;5.582;2023-04-03T02:16:43;3.50;;;2.25;;
71236;SDS011;58984;51.960;5.582;2023-04-03T02:19:08;5.53;;;2.15;;
71236;SDS011;58984;51.960;5.582;2023-04-03T02:21:34;4.22;;;1.85;;
71236;SDS011;58984;51.960;5.582;2023-04-03T02:24:00;2.75;;;2.00;;
71236;SDS011;58984;51.960;5.582;2023-04-03T02:26:25;3.58;;;2.20;;
71236;SDS011;58984;51.960;5.582;2023-04-03T02:28:51;2.63;;;2.10;;
71236;SDS011;58984;51.960;5.582;2023-04-03T02:31:17;3.83;;;2.10;;
71236;SDS011;58984;51.960;5.582;2023-04-03T02:33:42;3.22;;;2.22;;
71236;SDS011;58984;51.960;5.582;2023-04-03T02:36:08;5.55;;;2.45;;
71236;SDS011;58984;51.960;5.582;2023-04-03T02:38:34;2.72;;;2.10;;
71236;SDS011;58984;51.960;5.582;2023-04-03T02:41:01;4.68;;;2.17;;
71236;SDS011;58984;51.960;5.582;2023-04-03T02:43:28;4.75;;;2.10;;
71236;SDS011;58984;51.960;5.582;2023-04-03T02:45:53;2.28;;;2.05;;
71236;SDS011;58984;51.960;5.582;2023-04-03T02:48:19;4.97;;;2.00;;
71236;SDS011;58984;51.960;5.582;2023-04-03T02:50:44;3.83;;;2.42;;
71236;SDS011;58984;51.960;5.582;2023-04-03T02:53:10;18.17;;;3.08;;
71236;SDS011;58984;51.960;5.582;2023-04-03T02:55:35;7.63;;;2.30;;
71236;SDS011;58984;51.960;5.582;2023-04-03T02:58:01;3.30;;;2.25;;
71236;SDS011;58984;51.960;5.582;2023-04-03T03:00:28;6.63;;;2.67;;
71236;SDS011;58984;51.960;5.582;2023-04-03T03:02:54;4.63;;;2.40;;
71236;SDS011;58984;51.960;5.582;2023-04-03T03:05:20;3.38;;;2.55;;
71236;SDS011;58984;51.960;5.582;2023-04-03T03:07:46;2.17;;;1.92;;
71236;SDS011;58984;51.960;5.582;2023-04-03T03:10:11;3.38;;;2.60;;
71236;SDS011;58984;51.960;5.582;2023-04-03T03:12:37;4.30;;;2.47;;
71236;SDS011;58984;51.960;5.582;2023-04-03T03:15:03;3.63;;;2.10;;
71236;SDS011;58984;51.960;5.582;2023-04-03T03:17:28;4.65;;;2.90;;
71236;SDS011;58984;51.960;5.582;2023-04-03T03:19:54;6.88;;;2.22;;
71236;SDS011;58984;51.960;5.582;2023-04-03T03:22:19;4.38;;;2.40;;
71236;SDS011;58984;51.960;5.582;2023-04-03T03:24:45;4.00;;;2.42;;
71236;SDS011;58984;51.960;5.582;2023-04-03T03:27:11;4.75;;;2.45;;
71236;SDS011;58984;51.960;5.582;2023-04-03T03:29:37;3.08;;;2.53;;
71236;SDS011;58984;51.960;5.582;2023-04-03T03:32:02;3.17;;;2.40;;
71236;SDS011;58984;51.960;5.582;2023-04-03T03:34:28;2.88;;;2.30;;
71236;SDS011;58984;51.960;5.582;2023-04-03T03:36:54;2.95;;;2.35;;
71236;SDS011;58984;51.960;5.582;2023-04-03T03:39:20;4.25;;;2.40;;
71236;SDS011;58984;51.960;5.582;2023-04-03T03:41:46;2.53;;;2.17;;
71236;SDS011;58984;51.960;5.582;2023-04-03T03:44:12;3.88;;;2.35;;
71236;SDS011;58984;51.960;5.582;2023-04-03T03:46:38;3.88;;;2.50;;
71236;SDS011;58984;51.960;5.582;2023-04-03T03:49:03;3.17;;;2.28;;
71236;SDS011;58984;51.960;5.582;2023-04-03T03:51:29;3.10;;;2.60;;
71236;SDS011;58984;51.960;5.582;2023-04-03T03:53:55;3.85;;;2.25;;
71236;SDS011;58984;51.960;5.582;2023-04-03T03:56:20;5.07;;;2.83;;
71236;SDS011;58984;51.960;5.582;2023-04-03T03:58:46;4.05;;;2.45;;
71236;SDS011;58984;51.960;5.582;2023-04-03T04:01:11;6.05;;;2.63;;
71236;SDS011;58984;51.960;5.582;2023-04-03T04:03:37;3.95;;;2.78;;
71236;SDS011;58984;51.960;5.582;2023-04-03T04:06:03;4.55;;;2.53;;
71236;SDS011;58984;51.960;5.582;2023-04-03T04:08:28;4.15;;;2.30;;
71236;SDS011;58984;51.960;5.582;2023-04-03T04:10:54;5.35;;;2.65;;
71236;SDS011;58984;51.960;5.582;2023-04-03T04:13:20;4.60;;;2.80;;
71236;SDS011;58984;51.960;5.582;2023-04-03T04:15:46;4.72;;;2.83;;
71236;SDS011;58984;51.960;5.582;2023-04-03T04:18:11;4.78;;;2.67;;
71236;SDS011;58984;51.960;5.582;2023-04-03T04:20:37;3.03;;;2.10;;
71236;SDS011;58984;51.960;5.582;2023-04-03T04:23:03;2.45;;;2.25;;
71236;SDS011;58984;51.960;5.582;2023-04-03T04:25:28;4.57;;;2.55;;
71236;SDS011;58984;51.960;5.582;2023-04-03T04:27:54;4.32;;;2.70;;
71236;SDS011;58984;51.960;5.582;2023-04-03T04:30:19;5.25;;;2.80;;
71236;SDS011;58984;51.960;5.582;2023-04-03T04:32:45;5.28;;;2.50;;
71236;SDS011;58984;51.960;5.582;2023-04-03T04:35:11;7.20;;;2.70;;
71236;SDS011;58984;51.960;5.582;2023-04-03T04:37:37;4.18;;;2.92;;
71236;SDS011;58984;51.960;5.582;2023-04-03T04:40:03;3.95;;;2.47;;
71236;SDS011;58984;51.960;5.582;2023-04-03T04:42:29;4.35;;;2.38;;
71236;SDS011;58984;51.960;5.582;2023-04-03T04:44:54;3.58;;;2.38;;
71236;SDS011;58984;51.960;5.582;2023-04-03T04:47:20;8.10;;;3.33;;
71236;SDS011;58984;51.960;5.582;2023-04-03T04:49:46;6.75;;;2.72;;
71236;SDS011;58984;51.960;5.582;2023-04-03T04:52:12;4.95;;;2.60;;
71236;SDS011;58984;51.960;5.582;2023-04-03T04:54:38;3.42;;;2.38;;
71236;SDS011;58984;51.960;5.582;2023-04-03T04:57:03;3.33;;;2.10;;
71236;SDS011;58984;51.960;5.582;2023-04-03T04:59:29;4.90;;;2.65;;
71236;SDS011;58984;51.960;5.582;2023-04-03T05:01:55;2.50;;;2.30;;
71236;SDS011;58984;51.960;5.582;2023-04-03T05:04:20;4.50;;;2.63;;
71236;SDS011;58984;51.960;5.582;2023-04-03T05:06:46;3.47;;;2.50;;
71236;SDS011;58984;51.960;5.582;2023-04-03T05:09:12;6.18;;;2.55;;
71236;SDS011;58984;51.960;5.582;2023-04-03T05:11:37;4.90;;;2.28;;
71236;SDS011;58984;51.960;5.582;2023-04-03T05:14:03;4.57;;;2.80;;
71236;SDS011;58984;51.960;5.582;2023-04-03T05:16:31;5.75;;;2.83;;
71236;SDS011;58984;51.960;5.582;2023-04-03T05:18:57;4.07;;;2.50;;
71236;SDS011;58984;51.960;5.582;2023-04-03T05:21:23;9.00;;;2.80;;
71236;SDS011;58984;51.960;5.582;2023-04-03T05:23:50;5.47;;;2.50;;
71236;SDS011;58984;51.960;5.582;2023-04-03T05:26:16;4.30;;;2.75;;
71236;SDS011;58984;51.960;5.582;2023-04-03T05:28:42;4.10;;;2.67;;
71236;SDS011;58984;51.960;5.582;2023-04-03T05:31:08;5.25;;;2.70;;
71236;SDS011;58984;51.960;5.582;2023-04-03T05:33:33;4.07;;;2.50;;
71236;SDS011;58984;51.960;5.582;2023-04-03T05:36:06;3.88;;;2.53;;
71236;SDS011;58984;51.960;5.582;2023-04-03T05:38:32;4.43;;;2.60;;
71236;SDS011;58984;51.960;5.582;2023-04-03T05:40:58;5.03;;;2.97;;
71236;SDS011;58984;51.960;5.582;2023-04-03T05:43:23;3.50;;;3.08;;
71236;SDS011;58984;51.960;5.582;2023-04-03T05:45:50;7.55;;;3.00;;
71236;SDS011;58984;51.960;5.582;2023-04-03T05:48:16;4.57;;;2.75;;
71236;SDS011;58984;51.960;5.582;2023-04-03T05:50:42;4.10;;;2.50;;
71236;SDS011;58984;51.960;5.582;2023-04-03T05:53:12;3.80;;;2.50;;
71236;SDS011;58984;51.960;5.582;2023-04-03T05:55:44;5.22;;;2.80;;
71236;SDS011;58984;51.960;5.582;2023-04-03T05:58:10;6.88;;;2.90;;
71236;SDS011;58984;51.960;5.582;2023-04-03T06:00:35;5.28;;;2.70;;
71236;SDS011;58984;51.960;5.582;2023-04-03T06:03:01;5.28;;;2.53;;
71236;SDS011;58984;51.960;5.582;2023-04-03T06:05:27;4.00;;;2.67;;
71236;SDS011;58984;51.960;5.582;2023-04-03T06:07:52;4.90;;;2.90;;
71236;SDS011;58984;51.960;5.582;2023-04-03T06:10:18;4.43;;;2.88;;
71236;SDS011;58984;51.960;5.582;2023-04-03T06:12:45;4.95;;;3.10;;
71236;SDS011;58984;51.960;5.582;2023-04-03T06:15:10;6.80;;;2.85;;
71236;SDS011;58984;51.960;5.582;2023-04-03T06:17:36;5.88;;;2.67;;
71236;SDS011;58984;51.960;5.582;2023-04-03T06:20:02;3.88;;;2.42;;
71236;SDS011;58984;51.960;5.582;2023-04-03T06:22:29;5.22;;;2.67;;
71236;SDS011;58984;51.960;5.582;2023-04-03T06:24:55;6.43;;;2.78;;
71236;SDS011;58984;51.960;5.582;2023-04-03T06:27:21;7.65;;;3.05;;
71236;SDS011;58984;51.960;5.582;2023-04-03T06:29:47;7.18;;;2.47;;
71236;SDS011;58984;51.960;5.582;2023-04-03T06:32:14;4.65;;;2.85;;
71236;SDS011;58984;51.960;5.582;2023-04-03T06:34:40;4.82;;;2.50;;
71236;SDS011;58984;51.960;5.582;2023-04-03T06:37:10;4.60;;;3.03;;
71236;SDS011;58984;51.960;5.582;2023-04-03T06:39:40;5.10;;;2.47;;
71236;SDS011;58984;51.960;5.582;2023-04-03T06:42:06;7.68;;;3.05;;
71236;SDS011;58984;51.960;5.582;2023-04-03T06:44:32;4.50;;;2.60;;
71236;SDS011;58984;51.960;5.582;2023-04-03T06:46:59;6.30;;;3.10;;
71236;SDS011;58984;51.960;5.582;2023-04-03T06:49:25;5.20;;;2.72;;
71236;SDS011;58984;51.960;5.582;2023-04-03T06:51:51;4.50;;;2.67;;
71236;SDS011;58984;51.960;5.582;2023-04-03T06:54:16;5.78;;;2.63;;
71236;SDS011;58984;51.960;5.582;2023-04-03T06:56:43;3.92;;;2.25;;
71236;SDS011;58984;51.960;5.582;2023-04-03T06:59:09;4.47;;;2.80;;
71236;SDS011;58984;51.960;5.582;2023-04-03T07:01:35;3.58;;;2.20;;
71236;SDS011;58984;51.960;5.582;2023-04-03T07:04:01;4.25;;;2.55;;
71236;SDS011;58984;51.960;5.582;2023-04-03T07:06:26;6.57;;;2.80;;
71236;SDS011;58984;51.960;5.582;2023-04-03T07:08:52;4.93;;;2.25;;
71236;SDS011;58984;51.960;5.582;2023-04-03T07:11:18;3.53;;;2.58;;
71236;SDS011;58984;51.960;5.582;2023-04-03T07:13:45;6.05;;;3.05;;
71236;SDS011;58984;51.960;5.582;2023-04-03T07:16:11;3.90;;;2.97;;
71236;SDS011;58984;51.960;5.582;2023-04-03T07:18:37;4.22;;;2.83;;
71236;SDS011;58984;51.960;5.582;2023-04-03T07:21:03;4.68;;;2.38;;
71236;SDS011;58984;51.960;5.582;2023-04-03T07:23:29;7.45;;;2.63;;
71236;SDS011;58984;51.960;5.582;2023-04-03T07:25:54;4.03;;;2.65;;
71236;SDS011;58984;51.960;5.582;2023-04-03T07:28:21;5.20;;;2.88;;
71236;SDS011;58984;51.960;5.582;2023-04-03T07:31:00;4.15;;;2.28;;
71236;SDS011;58984;51.960;5.582;2023-04-03T07:33:33;4.15;;;2.60;;
71236;SDS011;58984;51.960;5.582;2023-04-03T07:36:00;6.47;;;2.42;;
71236;SDS011;58984;51.960;5.582;2023-04-03T07:38:28;3.50;;;2.60;;
71236;SDS011;58984;51.960;5.582;2023-04-03T07:40:54;6.65;;;2.65;;
71236;SDS011;58984;51.960;5.582;2023-04-03T07:43:20;4.20;;;2.35;;
71236;SDS011;58984;51.960;5.582;2023-04-03T07:45:48;3.70;;;2.13;;
71236;SDS011;58984;51.960;5.582;2023-04-03T07:48:20;6.97;;;2.50;;
71236;SDS011;58984;51.960;5.582;2023-04-03T07:50:47;4.53;;;2.15;;
71236;SDS011;58984;51.960;5.582;2023-04-03T07:53:13;3.63;;;2.13;;
71236;SDS011;58984;51.960;5.582;2023-04-03T07:55:39;3.60;;;2.35;;
71236;SDS011;58984;51.960;5.582;2023-04-03T07:58:11;2.45;;;1.80;;
71236;SDS011;58984;51.960;5.582;2023-04-03T08:00:42;7.38;;;2.47;;
71236;SDS011;58984;51.960;5.582;2023-04-03T08:03:09;3.47;;;1.95;;
71236;SDS011;58984;51.960;5.582;2023-04-03T08:05:42;2.95;;;1.88;;
71236;SDS011;58984;51.960;5.582;2023-04-03T08:08:10;2.97;;;1.98;;
71236;SDS011;58984;51.960;5.582;2023-04-03T08:10:37;4.65;;;2.00;;
71236;SDS011;58984;51.960;5.582;2023-04-03T08:13:03;3.42;;;2.00;;
71236;SDS011;58984;51.960;5.582;2023-04-03T08:15:29;2.58;;;1.90;;
71236;SDS011;58984;51.960;5.582;2023-04-03T08:17:56;2.78;;;1.65;;
71236;SDS011;58984;51.960;5.582;2023-04-03T08:20:23;2.88;;;1.70;;
71236;SDS011;58984;51.960;5.582;2023-04-03T08:22:48;3.35;;;1.85;;
71236;SDS011;58984;51.960;5.582;2023-04-03T08:25:14;2.38;;;1.52;;
71236;SDS011;58984;51.960;5.582;2023-04-03T08:27:40;3.40;;;2.00;;
71236;SDS011;58984;51.960;5.582;2023-04-03T08:30:06;2.88;;;1.83;;
71236;SDS011;58984;51.960;5.582;2023-04-03T08:32:33;2.70;;;1.60;;
71236;SDS011;58984;51.960;5.582;2023-04-03T08:34:59;2.67;;;1.80;;
71236;SDS011;58984;51.960;5.582;2023-04-03T08:37:25;5.15;;;1.77;;
71236;SDS011;58984;51.960;5.582;2023-04-03T08:39:51;4.10;;;1.80;;
71236;SDS011;58984;51.960;5.582;2023-04-03T08:45:00;2.63;;;1.75;;
71236;SDS011;58984;51.960;5.582;2023-04-03T08:50:06;2.65;;;1.55;;
71236;SDS011;58984;51.960;5.582;2023-04-03T08:52:52;4.00;;;1.52;;
71236;SDS011;58984;51.960;5.582;2023-04-03T08:55:26;1.73;;;1.33;;
71236;SDS011;58984;51.960;5.582;2023-04-03T08:58:20;2.25;;;1.52;;
71236;SDS011;58984;51.960;5.582;2023-04-03T09:03:34;1.83;;;1.20;;
71236;SDS011;58984;51.960;5.582;2023-04-03T09:06:04;2.88;;;1.20;;
71236;SDS011;58984;51.960;5.582;2023-04-03T09:11:24;1.67;;;1.40;;
71236;SDS011;58984;51.960;5.582;2023-04-03T09:14:15;1.55;;;1.23;;
71236;SDS011;58984;51.960;5.582;2023-04-03T09:19:51;1.15;;;1.10;;
71236;SDS011;58984;51.960;5.582;2023-04-03T09:22:24;1.35;;;0.80;;
71236;SDS011;58984;51.960;5.582;2023-04-03T09:24:58;1.23;;;1.00;;
71236;SDS011;58984;51.960;5.582;2023-04-03T09:27:30;1.10;;;1.00;;
71236;SDS011;58984;51.960;5.582;2023-04-03T09:29:56;1.63;;;0.90;;
71236;SDS011;58984;51.960;5.582;2023-04-03T09:32:30;1.88;;;1.20;;
71236;SDS011;58984;51.960;5.582;2023-04-03T09:34:58;1.70;;;0.90;;
71236;SDS011;58984;51.960;5.582;2023-04-03T09:40:04;0.70;;;0.70;;
71236;SDS011;58984;51.960;5.582;2023-04-03T09:42:32;2.85;;;0.80;;
71236;SDS011;58984;51.960;5.582;2023-04-03T09:44:58;2.38;;;0.80;;
71236;SDS011;58984;51.960;5.582;2023-04-03T09:49:56;0.60;;;0.60;;
71236;SDS011;58984;51.960;5.582;2023-04-03T09:52:34;1.45;;;0.75;;
71236;SDS011;58984;51.960;5.582;2023-04-03T09:55:16;0.63;;;0.63;;
71236;SDS011;58984;51.960;5.582;2023-04-03T09:57:51;2.38;;;0.60;;
71236;SDS011;58984;51.960;5.582;2023-04-03T10:00:53;0.77;;;0.70;;
71236;SDS011;58984;51.960;5.582;2023-04-03T10:03:44;0.60;;;0.60;;
71236;SDS011;58984;51.960;5.582;2023-04-03T10:06:24;1.00;;;0.70;;
71236;SDS011;58984;51.960;5.582;2023-04-03T10:08:59;1.33;;;0.60;;
71236;SDS011;58984;51.960;5.582;2023-04-03T10:11:27;1.08;;;0.68;;
71236;SDS011;58984;51.960;5.582;2023-04-03T10:14:01;3.22;;;0.70;;
71236;SDS011;58984;51.960;5.582;2023-04-03T10:16:35;1.83;;;0.70;;
71236;SDS011;58984;51.960;5.582;2023-04-03T10:19:09;1.02;;;0.93;;
71236;SDS011;58984;51.960;5.582;2023-04-03T10:21:48;2.00;;;0.85;;
71236;SDS011;58984;51.960;5.582;2023-04-03T10:24:32;0.88;;;0.85;;
71236;SDS011;58984;51.960;5.582;2023-04-03T10:27:10;0.60;;;0.60;;
71236;SDS011;58984;51.960;5.582;2023-04-03T10:32:58;0.82;;;0.50;;
71236;SDS011;58984;51.960;5.582;2023-04-03T10:38:50;0.70;;;0.70;;
71236;SDS011;58984;51.960;5.582;2023-04-03T10:41:47;2.20;;;0.90;;
71236;SDS011;58984;51.960;5.582;2023-04-03T10:46:56;0.90;;;0.60;;
71236;SDS011;58984;51.960;5.582;2023-04-03T10:49:36;2.15;;;0.73;;
71236;SDS011;58984;51.960;5.582;2023-04-03T10:52:43;0.65;;;0.65;;
71236;SDS011;58984;51.960;5.582;2023-04-03T10:55:24;5.43;;;1.00;;
71236;SDS011;58984;51.960;5.582;2023-04-03T10:58:18;1.48;;;0.75;;
71236;SDS011;58984;51.960;5.582;2023-04-03T11:00:51;1.05;;;0.95;;
71236;SDS011;58984;51.960;5.582;2023-04-03T11:06:01;1.23;;;0.93;;
71236;SDS011;58984;51.960;5.582;2023-04-03T11:11:06;0.77;;;0.77;;
71236;SDS011;58984;51.960;5.582;2023-04-03T11:16:05;1.02;;;0.90;;
71236;SDS011;58984;51.960;5.582;2023-04-03T11:23:59;1.67;;;1.10;;
71236;SDS011;58984;51.960;5.582;2023-04-03T11:26:31;1.33;;;0.85;;
71236;SDS011;58984;51.960;5.582;2023-04-03T11:29:08;1.30;;;0.82;;
71236;SDS011;58984;51.960;5.582;2023-04-03T11:34:31;1.88;;;0.90;;
71236;SDS011;58984;51.960;5.582;2023-04-03T11:37:01;2.17;;;1.20;;
71236;SDS011;58984;51.960;5.582;2023-04-03T11:39:31;0.80;;;0.80;;
71236;SDS011;58984;51.960;5.582;2023-04-03T11:42:22;0.90;;;0.82;;
71236;SDS011;58984;51.960;5.582;2023-04-03T11:47:51;2.75;;;0.90;;
71236;SDS011;58984;51.960;5.582;2023-04-03T12:05:56;1.58;;;1.00;;
71236;SDS011;58984;51.960;5.582;2023-04-03T12:08:29;2.10;;;0.90;;
71236;SDS011;58984;51.960;5.582;2023-04-03T12:13:37;1.65;;;0.90;;
71236;SDS011;58984;51.960;5.582;2023-04-03T12:16:03;1.15;;;0.90;;
71236;SDS011;58984;51.960;5.582;2023-04-03T12:18:41;3.13;;;1.10;;
71236;SDS011;58984;51.960;5.582;2023-04-03T12:21:07;1.00;;;0.90;;
71236;SDS011;58984;51.960;5.582;2023-04-03T12:23:34;1.70;;;1.00;;
71236;SDS011;58984;51.960;5.582;2023-04-03T12:28:50;1.70;;;1.20;;
71236;SDS011;58984;51.960;5.582;2023-04-03T12:31:18;1.88;;;1.08;;
71236;SDS011;58984;51.960;5.582;2023-04-03T12:33:52;2.70;;;1.00;;
71236;SDS011;58984;51.960;5.582;2023-04-03T12:36:28;1.90;;;1.02;;
71236;SDS011;58984;51.960;5.582;2023-04-03T12:39:09;1.15;;;0.95;;
71236;SDS011;58984;51.960;5.582;2023-04-03T12:41:58;2.03;;;1.13;;
71236;SDS011;58984;51.960;5.582;2023-04-03T12:44:42;1.33;;;0.98;;
71236;SDS011;58984;51.960;5.582;2023-04-03T12:47:24;1.35;;;1.13;;
71236;SDS011;58984;51.960;5.582;2023-04-03T12:49:53;4.20;;;1.55;;
71236;SDS011;58984;51.960;5.582;2023-04-03T12:52:43;24.23;;;3.05;;
71236;SDS011;58984;51.960;5.582;2023-04-03T12:55:19;3.43;;;1.50;;
71236;SDS011;58984;51.960;5.582;2023-04-03T12:57:46;25.33;;;3.38;;
71236;SDS011;58984;51.960;5.582;2023-04-03T13:00:27;12.35;;;2.50;;
71236;SDS011;58984;51.960;5.582;2023-04-03T13:02:58;6.43;;;2.13;;
71236;SDS011;58984;51.960;5.582;2023-04-03T13:05:25;3.45;;;1.70;;
71236;SDS011;58984;51.960;5.582;2023-04-03T13:07:53;3.90;;;1.52;;
71236;SDS011;58984;51.960;5.582;2023-04-03T13:10:29;5.28;;;1.65;;
71236;SDS011;58984;51.960;5.582;2023-04-03T13:12:57;2.10;;;1.30;;
71236;SDS011;58984;51.960;5.582;2023-04-03T13:15:40;13.45;;;3.17;;
71236;SDS011;58984;51.960;5.582;2023-04-03T13:21:17;9.00;;;2.45;;
71236;SDS011;58984;51.960;5.582;2023-04-03T13:23:50;2.03;;;1.50;;
71236;SDS011;58984;51.960;5.582;2023-04-03T13:26:20;4.50;;;1.70;;
71236;SDS011;58984;51.960;5.582;2023-04-03T13:28:48;2.17;;;1.60;;
71236;SDS011;58984;51.960;5.582;2023-04-03T13:31:34;4.07;;;1.80;;
71236;SDS011;58984;51.960;5.582;2023-04-03T13:34:12;2.67;;;1.77;;
71236;SDS011;58984;51.960;5.582;2023-04-03T13:37:02;5.80;;;1.98;;
71236;SDS011;58984;51.960;5.582;2023-04-03T13:39:30;2.83;;;1.60;;
71236;SDS011;58984;51.960;5.582;2023-04-03T13:42:03;5.20;;;1.98;;
71236;SDS011;58984;51.960;5.582;2023-04-03T13:44:42;2.92;;;1.73;;
71236;SDS011;58984;51.960;5.582;2023-04-03T13:49:38;5.43;;;2.08;;
71236;SDS011;58984;51.960;5.582;2023-04-03T13:54:51;3.20;;;2.10;;
71236;SDS011;58984;51.960;5.582;2023-04-03T13:57:20;1.92;;;1.52;;
71236;SDS011;58984;51.960;5.582;2023-04-03T13:59:46;3.17;;;1.50;;
71236;SDS011;58984;51.960;5.582;2023-04-03T14:02:14;3.03;;;1.60;;
71236;SDS011;58984;51.960;5.582;2023-04-03T14:04:52;5.22;;;1.85;;
71236;SDS011;58984;51.960;5.582;2023-04-03T14:07:23;3.75;;;1.77;;
71236;SDS011;58984;51.960;5.582;2023-04-03T14:09:49;2.88;;;1.55;;
71236;SDS011;58984;51.960;5.582;2023-04-03T14:12:17;3.88;;;1.80;;
71236;SDS011;58984;51.960;5.582;2023-04-03T14:14:51;3.88;;;1.83;;
71236;SDS011;58984;51.960;5.582;2023-04-03T14:17:18;6.15;;;2.15;;
71236;SDS011;58984;51.960;5.582;2023-04-03T14:19:46;5.57;;;2.03;;
71236;SDS011;58984;51.960;5.582;2023-04-03T14:22:18;4.57;;;1.80;;
71236;SDS011;58984;51.960;5.582;2023-04-03T14:24:50;6.38;;;1.75;;
71236;SDS011;58984;51.960;5.582;2023-04-03T14:29:46;3.33;;;1.33;;
71236;SDS011;58984;51.960;5.582;2023-04-03T14:32:13;3.55;;;1.70;;
71236;SDS011;58984;51.960;5.582;2023-04-03T14:34:39;5.50;;;2.20;;
71236;SDS011;58984;51.960;5.582;2023-04-03T14:37:09;3.03;;;2.05;;
71236;SDS011;58984;51.960;5.582;2023-04-03T14:39:38;5.22;;;1.92;;
71236;SDS011;58984;51.960;5.582;2023-04-03T14:42:03;4.22;;;1.63;;
71236;SDS011;58984;51.960;5.582;2023-04-03T14:44:30;4.80;;;2.08;;
71236;SDS011;58984;51.960;5.582;2023-04-03T14:46:55;4.53;;;1.85;;
71236;SDS011;58984;51.960;5.582;2023-04-03T14:49:22;3.47;;;1.90;;
71236;SDS011;58984;51.960;5.582;2023-04-03T14:51:51;5.47;;;2.05;;
71236;SDS011;58984;51.960;5.582;2023-04-03T14:54:18;5.68;;;1.60;;
71236;SDS011;58984;51.960;5.582;2023-04-03T14:56:50;2.25;;;1.70;;
71236;SDS011;58984;51.960;5.582;2023-04-03T14:59:17;7.25;;;2.35;;
71236;SDS011;58984;51.960;5.582;2023-04-03T15:01:45;14.63;;;2.60;;
71236;SDS011;58984;51.960;5.582;2023-04-03T15:04:14;7.55;;;2.42;;
71236;SDS011;58984;51.960;5.582;2023-04-03T15:06:41;5.05;;;2.05;;
71236;SDS011;58984;51.960;5.582;2023-04-03T15:09:23;4.95;;;1.90;;
71236;SDS011;58984;51.960;5.582;2023-04-03T15:11:51;5.45;;;2.30;;
71236;SDS011;58984;51.960;5.582;2023-04-03T15:14:18;4.40;;;1.75;;
71236;SDS011;58984;51.960;5.582;2023-04-03T15:16:44;3.08;;;1.50;;
71236;SDS011;58984;51.960;5.582;2023-04-03T15:19:10;3.20;;;1.58;;
71236;SDS011;58984;51.960;5.582;2023-04-03T15:21:36;3.50;;;1.50;;
71236;SDS011;58984;51.960;5.582;2023-04-03T15:24:02;4.85;;;1.90;;
71236;SDS011;58984;51.960;5.582;2023-04-03T15:26:28;1.95;;;1.55;;
71236;SDS011;58984;51.960;5.582;2023-04-03T15:28:54;3.97;;;1.60;;
71236;SDS011;58984;51.960;5.582;2023-04-03T15:31:20;5.65;;;1.98;;
71236;SDS011;58984;51.960;5.582;2023-04-03T15:33:46;2.15;;;1.70;;
71236;SDS011;58984;51.960;5.582;2023-04-03T15:36:12;3.67;;;1.90;;
71236;SDS011;58984;51.960;5.582;2023-04-03T15:38:37;3.75;;;1.88;;
71236;SDS011;58984;51.960;5.582;2023-04-03T15:41:03;2.03;;;1.40;;
71236;SDS011;58984;51.960;5.582;2023-04-03T15:43:29;5.07;;;1.95;;
71236;SDS011;58984;51.960;5.582;2023-04-03T15:45:56;2.53;;;1.48;;
71236;SDS011;58984;51.960;5.582;2023-04-03T15:48:22;5.00;;;1.95;;
71236;SDS011;58984;51.960;5.582;2023-04-03T15:50:48;4.32;;;2.08;;
71236;SDS011;58984;51.960;5.582;2023-04-03T15:53:13;4.05;;;1.83;;
71236;SDS011;58984;51.960;5.582;2023-04-03T15:55:39;4.53;;;1.92;;
71236;SDS011;58984;51.960;5.582;2023-04-03T15:58:06;4.13;;;1.70;;
71236;SDS011;58984;51.960;5.582;2023-04-03T16:00:32;3.53;;;1.67;;
71236;SDS011;58984;51.960;5.582;2023-04-03T16:03:04;1.55;;;1.45;;
71236;SDS011;58984;51.960;5.582;2023-04-03T16:05:33;2.53;;;1.52;;
71236;SDS011;58984;51.960;5.582;2023-04-03T16:08:02;2.65;;;1.95;;
71236;SDS011;58984;51.960;5.582;2023-04-03T16:10:28;2.78;;;1.45;;
71236;SDS011;58984;51.960;5.582;2023-04-03T16:12:54;3.25;;;1.67;;
71236;SDS011;58984;51.960;5.582;2023-04-03T16:15:20;4.20;;;1.88;;
71236;SDS011;58984;51.960;5.582;2023-04-03T16:17:45;2.50;;;1.90;;
71236;SDS011;58984;51.960;5.582;2023-04-03T16:20:13;2.95;;;1.77;;
71236;SDS011;58984;51.960;5.582;2023-04-03T16:22:38;4.07;;;1.85;;
71236;SDS011;58984;51.960;5.582;2023-04-03T16:25:05;2.85;;;1.75;;